Time;durP1;ratioP1;P1;durP2;ratioP2;P2;SDS_P1;SDS_P2;PMS_P1;PMS_P2;Temp;Humidity;BMP_temperature;BMP_pressure;BME280_temperature;BME280_humidity;BME280_pressure;Samples;Min_cycle;Max_cycle;Signal;HPM_P1;HPM_P2
2023/10/31 00:00:05;;;;;;;4.38;3.13;;;14.70;1.00;;;;;;5180823;28;20268;-65
2023/10/31 00:02:36;;;;;;;5.53;3.23;;;14.80;1.00;;;;;;5155073;28;20120;-65
2023/10/31 00:05:08;;;;;;;3.78;2.30;;;14.80;1.00;;;;;;5139873;28;20038;-65
2023/10/31 00:07:42;;;;;;;2.72;2.45;;;14.80;1.00;;;;;;5140927;28;20234;-65
2023/10/31 00:10:16;;;;;;;5.00;2.67;;;14.80;1.00;;;;;;5157638;28;20064;-65
2023/10/31 00:12:48;;;;;;;4.05;2.17;;;14.90;1.00;;;;;;5141926;28;20036;-65
2023/10/31 00:15:28;;;;;;;3.60;2.10;;;15.20;1.00;;;;;;5157143;28;20410;-65
2023/10/31 00:18:02;;;;;;;2.88;1.98;;;15.40;1.00;;;;;;5159203;28;20494;-64
2023/10/31 00:20:34;;;;;;;3.00;2.28;;;15.50;1.00;;;;;;5143045;28;20038;-64
2023/10/31 00:23:05;;;;;;;3.85;2.10;;;15.50;1.00;;;;;;5159797;28;20042;-64
2023/10/31 00:25:39;;;;;;;2.17;1.70;;;15.60;1.00;;;;;;5159495;28;20042;-64
2023/10/31 00:28:15;;;;;;;1.85;1.67;;;15.60;1.00;;;;;;5166495;28;20034;-63
2023/10/31 00:30:46;;;;;;;4.55;2.80;;;15.60;1.00;;;;;;5178012;28;20335;-63
2023/10/31 00:33:20;;;;;;;2.33;2.00;;;15.50;1.00;;;;;;5178770;28;20065;-63
2023/10/31 00:35:53;;;;;;;2.67;2.20;;;15.50;1.00;;;;;;5180484;28;20028;-64
2023/10/31 00:38:27;;;;;;;6.30;2.47;;;15.50;1.00;;;;;;5162875;28;20309;-64
2023/10/31 00:41:01;;;;;;;4.97;2.63;;;15.50;1.00;;;;;;5163136;28;20077;-64
2023/10/31 00:43:35;;;;;;;3.40;2.55;;;15.50;1.00;;;;;;5161683;28;20050;-64
2023/10/31 00:46:06;;;;;;;6.43;2.83;;;15.40;1.00;;;;;;5176816;28;20040;-63
2023/10/31 00:48:40;;;;;;;3.83;2.22;;;15.50;1.00;;;;;;5180378;28;20033;-64
2023/10/31 00:51:24;;;;;;;4.57;2.28;;;15.40;1.00;;;;;;5179705;28;20045;-64
2023/10/31 00:53:55;;;;;;;2.38;1.90;;;15.40;1.00;;;;;;5167521;28;20030;-64
2023/10/31 00:56:29;;;;;;;2.05;1.90;;;15.50;99.90;;;;;;5188604;28;20088;-64
2023/10/31 00:59:00;;;;;;;3.72;2.30;;;15.50;99.90;;;;;;5171551;28;20037;-63
2023/10/31 01:01:32;;;;;;;3.00;2.70;;;15.40;1.00;;;;;;5198265;22;20041;-91
2023/10/31 01:04:03;;;;;;;4.22;2.35;;;15.40;1.00;;;;;;5161859;28;20034;-89
2023/10/31 01:06:49;;;;;;;3.63;2.35;;;15.40;1.00;;;;;;5161394;28;20034;-91
2023/10/31 01:09:20;;;;;;;2.28;2.00;;;15.50;99.90;;;;;;5161375;28;20030;-90
2023/10/31 01:11:52;;;;;;;3.50;2.60;;;15.60;99.90;;;;;;5162773;28;20030;-90
2023/10/31 01:14:23;;;;;;;5.13;2.13;;;15.70;99.90;;;;;;5162173;28;20217;-92
2023/10/31 01:16:54;;;;;;;2.95;1.98;;;15.80;99.90;;;;;;5163532;28;20030;-90
2023/10/31 01:19:28;;;;;;;3.58;1.77;;;15.90;99.90;;;;;;5163472;28;20071;-91
2023/10/31 01:22:02;;;;;;;2.28;2.08;;;15.90;99.90;;;;;;5171930;28;20030;-90
2023/10/31 01:24:33;;;;;;;2.60;2.00;;;15.90;99.90;;;;;;5171959;28;20040;-90
2023/10/31 01:27:05;;;;;;;3.60;2.20;;;15.90;99.90;;;;;;5172461;28;20034;-89
2023/10/31 01:29:36;;;;;;;4.60;1.80;;;15.80;99.90;;;;;;5171436;28;20037;-91
2023/10/31 01:32:10;;;;;;;2.55;1.88;;;15.70;99.90;;;;;;5171193;28;20092;-90
2023/10/31 01:34:46;;;;;;;2.35;2.08;;;15.70;99.90;;;;;;5163941;28;20030;-90
2023/10/31 01:37:21;;;;;;;3.17;2.20;;;15.70;99.90;;;;;;5163161;28;20311;-91
2023/10/31 01:39:55;;;;;;;5.57;2.15;;;15.60;99.90;;;;;;5162050;28;20032;-90
2023/10/31 01:42:26;;;;;;;3.30;2.30;;;15.50;99.90;;;;;;5161392;28;20031;-90
2023/10/31 01:44:57;;;;;;;2.53;1.83;;;15.60;99.90;;;;;;5161189;28;20251;-90
2023/10/31 01:47:31;;;;;;;3.75;2.03;;;15.60;99.90;;;;;;5160303;28;20048;-89
2023/10/31 01:50:06;;;;;;;2.38;2.17;;;15.60;99.90;;;;;;5159971;28;20088;-89
2023/10/31 01:52:37;;;;;;;3.38;2.03;;;15.50;99.90;;;;;;5161410;28;20034;-91
2023/10/31 01:55:10;;;;;;;6.53;1.60;;;15.40;99.90;;;;;;5160916;28;20124;-91
2023/10/31 01:57:43;;;;;;;2.42;1.90;;;15.40;99.90;;;;;;5144744;28;20044;-91
2023/10/31 02:00:18;;;;;;;3.03;2.20;;;15.40;99.90;;;;;;5160056;28;20060;-90
2023/10/31 02:02:53;;;;;;;2.75;1.90;;;15.40;99.90;;;;;;5160951;28;20042;-92
2023/10/31 02:05:27;;;;;;;4.53;2.08;;;15.40;99.90;;;;;;5160170;28;20132;-89
2023/10/31 02:07:58;;;;;;;2.38;1.90;;;15.50;90.10;;;;;;5161134;28;20031;-90
2023/10/31 02:10:33;;;;;;;3.28;1.70;;;15.60;99.90;;;;;;5160613;28;20044;-89
2023/10/31 02:13:15;;;;;;;2.10;1.90;;;15.70;99.90;;;;;;5148320;28;20034;-89
2023/10/31 02:15:47;;;;;;;4.72;2.10;;;15.70;99.90;;;;;;5161804;28;20126;-90
2023/10/31 02:18:18;;;;;;;2.70;1.83;;;15.70;99.90;;;;;;5160334;28;20034;-90
2023/10/31 02:20:50;;;;;;;7.53;2.28;;;15.70;99.90;;;;;;5163313;28;20049;-90
2023/10/31 02:23:25;;;;;;;6.45;1.98;;;15.80;99.90;;;;;;5162964;28;20030;-91
2023/10/31 02:25:57;;;;;;;2.60;1.90;;;15.80;99.90;;;;;;5160835;28;20068;-90
2023/10/31 02:28:30;;;;;;;2.45;1.85;;;15.90;99.90;;;;;;5179013;28;20124;-91
2023/10/31 02:31:04;;;;;;;3.25;2.13;;;16.00;99.90;;;;;;5163255;28;20030;-92
2023/10/31 02:33:39;;;;;;;3.50;2.00;;;16.00;99.90;;;;;;5162300;28;20312;-91
2023/10/31 02:36:10;;;;;;;3.88;2.25;;;16.20;2.50;;;;;;5162227;28;20044;-91
2023/10/31 02:38:42;;;;;;;2.92;1.80;;;16.30;1.00;;;;;;5161884;28;20034;-90
2023/10/31 02:41:13;;;;;;;2.85;2.08;;;16.30;1.00;;;;;;5167938;28;20046;-90
2023/10/31 02:43:45;;;;;;;4.68;1.85;;;16.20;1.00;;;;;;5170543;28;20114;-88
2023/10/31 02:46:17;;;;;;;5.22;1.90;;;16.20;1.00;;;;;;5161520;28;20090;-90
2023/10/31 02:48:48;;;;;;;3.70;2.20;;;16.10;1.00;;;;;;5160076;28;20042;-90
2023/10/31 02:51:25;;;;;;;2.90;1.83;;;16.10;1.00;;;;;;5160386;28;20200;-90
2023/10/31 02:54:17;;;;;;;;;;;16.20;1.00;;;;;;5184417;28;20017;-90
2023/10/31 02:56:51;;;;;;;3.28;1.77;;;16.20;1.00;;;;;;5160617;28;19906;-90
2023/10/31 02:59:23;;;;;;;5.78;2.20;;;16.20;1.00;;;;;;5159335;28;20108;-91
2023/10/31 03:02:14;;;;;;;3.03;2.00;;;16.20;1.00;;;;;;5180752;28;20064;-90
2023/10/31 03:08:20;;;;;;;1.85;1.60;;;16.40;1.00;;;;;;5176496;28;20182;-91
2023/10/31 03:10:52;;;;;;;4.40;2.40;;;16.60;1.00;;;;;;5159790;28;20030;-91
2023/10/31 03:13:23;;;;;;;5.30;1.60;;;16.70;1.00;;;;;;5144975;28;20044;-90
2023/10/31 03:15:54;;;;;;;3.85;1.75;;;16.70;1.00;;;;;;5160175;28;20054;-90
2023/10/31 03:18:26;;;;;;;2.10;1.67;;;16.70;1.00;;;;;;5163046;28;20049;-90
2023/10/31 03:20:57;;;;;;;3.88;1.67;;;16.80;1.00;;;;;;5166361;28;20049;-89
2023/10/31 03:23:33;;;;;;;1.65;1.55;;;16.80;1.00;;;;;;5145806;28;20307;-90
2023/10/31 03:26:06;;;;;;;1.65;1.52;;;16.60;1.00;;;;;;5175835;28;20030;-93
2023/10/31 03:28:37;;;;;;;4.30;1.65;;;16.50;1.00;;;;;;5159223;28;20034;-90
2023/10/31 03:31:12;;;;;;;1.77;1.20;;;16.40;1.00;;;;;;5159521;28;20044;-91
2023/10/31 03:33:47;;;;;;;1.20;1.10;;;16.20;1.00;;;;;;5159937;28;20038;-90
2023/10/31 03:39:46;;;;;;;0.73;0.73;;;15.80;1.00;;;;;;5181850;28;20323;-92
2023/10/31 03:42:18;;;;;;;0.80;0.80;;;15.70;1.00;;;;;;5160617;28;20031;-90
2023/10/31 03:48:21;;;;;;;0.82;0.82;;;15.50;1.00;;;;;;5176311;28;20033;-92
2023/10/31 03:50:55;;;;;;;0.82;0.82;;;15.40;65.50;;;;;;5159980;28;20040;-90
2023/10/31 03:53:26;;;;;;;1.15;1.00;;;15.40;50.30;;;;;;5160587;28;20041;-91
2023/10/31 03:59:31;;;;;;;0.70;0.70;;;15.30;35.80;;;;;;5176564;28;20040;-92
2023/10/31 04:02:03;;;;;;;0.70;0.70;;;15.30;26.10;;;;;;5159839;28;20045;-92
2023/10/31 04:04:37;;;;;;;0.70;0.70;;;15.30;53.40;;;;;;5160014;28;20022;-91
2023/10/31 04:07:08;;;;;;;;;;;15.20;51.00;;;;;;5160258;28;20026;-91
2023/10/31 04:09:40;;;;;;;0.60;0.60;;;15.20;99.90;;;;;;5159673;28;20196;-92
2023/10/31 04:12:14;;;;;;;0.85;0.85;;;15.10;99.90;;;;;;5176313;28;20204;-91
2023/10/31 04:18:18;;;;;;;0.77;0.77;;;15.10;1.00;;;;;;5176689;28;20029;-91
2023/10/31 04:20:50;;;;;;;0.98;0.98;;;15.00;1.00;;;;;;5159172;28;20033;-92
2023/10/31 04:23:21;;;;;;;0.80;0.80;;;15.00;1.00;;;;;;5160762;28;20023;-91
2023/10/31 04:25:58;;;;;;;1.17;1.05;;;15.00;10.90;;;;;;5159367;28;20030;-90
2023/10/31 04:28:29;;;;;;;0.90;0.90;;;14.90;98.30;;;;;;5158893;28;20030;-92
2023/10/31 04:31:00;;;;;;;1.05;1.02;;;14.80;99.90;;;;;;5158288;28;20034;-90
2023/10/31 04:33:36;;;;;;;1.10;1.10;;;14.80;99.90;;;;;;5158559;28;20064;-90
2023/10/31 04:36:10;;;;;;;0.85;0.85;;;14.70;99.90;;;;;;5158769;28;20037;-90
2023/10/31 04:38:41;;;;;;;;;;;14.70;99.90;;;;;;5159088;28;20034;-90
2023/10/31 04:41:15;;;;;;;0.80;0.80;;;14.70;99.90;;;;;;5158993;28;20172;-90
2023/10/31 04:43:50;;;;;;;0.75;0.75;;;14.70;99.90;;;;;;5162302;28;20030;-90
2023/10/31 04:49:49;;;;;;;1.00;1.00;;;14.70;99.90;;;;;;5179554;28;20027;-90
2023/10/31 04:52:22;;;;;;;0.80;0.80;;;14.70;99.90;;;;;;5163012;28;20123;-90
2023/10/31 04:54:54;;;;;;;1.55;0.90;;;14.80;99.90;;;;;;5162502;28;20026;-91
2023/10/31 04:57:25;;;;;;;0.80;0.80;;;14.80;99.90;;;;;;5162213;28;20040;-91
2023/10/31 04:59:58;;;;;;;0.88;0.88;;;14.70;99.90;;;;;;5161876;28;20057;-90
2023/10/31 05:02:30;;;;;;;0.90;0.90;;;14.70;99.90;;;;;;5166180;28;20038;-92
2023/10/31 05:05:03;;;;;;;0.75;0.75;;;14.70;99.90;;;;;;5165537;28;20041;-90
2023/10/31 05:07:34;;;;;;;2.42;0.63;;;14.60;99.90;;;;;;5166176;28;20030;-90
2023/10/31 05:10:09;;;;;;;0.60;0.60;;;14.60;99.90;;;;;;5150334;28;20042;-90
2023/10/31 05:12:41;;;;;;;0.50;0.50;;;14.50;99.90;;;;;;5181885;28;20030;-92
2023/10/31 05:15:12;;;;;;;0.80;0.80;;;14.50;1.00;;;;;;5166371;28;20022;-90
2023/10/31 05:17:45;;;;;;;0.73;0.73;;;14.40;1.00;;;;;;5165604;28;20026;-90
2023/10/31 05:20:16;;;;;;;0.77;0.77;;;14.30;1.00;;;;;;5163976;28;20030;-90
2023/10/31 05:22:53;;;;;;;0.80;0.80;;;14.30;1.00;;;;;;5169300;28;20036;-91
2023/10/31 05:25:27;;;;;;;0.77;0.77;;;14.20;1.00;;;;;;5168637;28;20052;-91
2023/10/31 05:27:59;;;;;;;2.08;1.00;;;14.20;1.00;;;;;;5166907;28;20034;-91
2023/10/31 05:30:33;;;;;;;0.82;0.82;;;14.10;1.00;;;;;;5169518;28;20028;-90
2023/10/31 05:33:07;;;;;;;0.70;0.70;;;14.00;1.00;;;;;;5169167;28;20029;-91
2023/10/31 05:35:43;;;;;;;0.93;0.93;;;14.00;1.00;;;;;;5167657;28;20030;-89
2023/10/31 05:38:14;;;;;;;0.95;0.93;;;13.90;1.00;;;;;;5185171;28;20034;-91
2023/10/31 05:40:50;;;;;;;0.85;0.85;;;13.90;1.00;;;;;;5169668;28;20044;-92
2023/10/31 05:43:22;;;;;;;0.90;0.90;;;14.00;1.00;;;;;;5167725;28;20034;-90
2023/10/31 05:49:21;;;;;;;0.60;0.60;;;13.90;1.00;;;;;;5183535;28;20036;-90
2023/10/31 05:51:53;;;;;;;0.80;0.80;;;13.90;99.90;;;;;;5165158;28;20037;-93
2023/10/31 05:54:25;;;;;;;0.70;0.70;;;14.00;99.90;;;;;;5165639;28;20034;-91
2023/10/31 05:56:57;;;;;;;0.70;0.70;;;14.00;99.90;;;;;;5151331;28;20331;-93
2023/10/31 05:59:32;;;;;;;0.60;0.60;;;14.00;99.90;;;;;;5182473;28;20038;-91
2023/10/31 06:02:04;;;;;;;0.80;0.80;;;13.80;99.90;;;;;;5166479;28;20034;-93
2023/10/31 06:08:05;;;;;;;0.60;0.60;;;13.70;1.00;;;;;;5183093;28;20026;-92
2023/10/31 06:10:39;;;;;;;0.85;0.85;;;13.60;1.00;;;;;;5165372;28;20034;-92
2023/10/31 06:13:13;;;;;;;0.70;0.70;;;13.60;1.00;;;;;;5165980;28;20034;-90
2023/10/31 06:19:15;;;;;;;1.10;0.80;;;13.80;99.90;;;;;;5181226;28;20030;-90
2023/10/31 06:21:50;;;;;;;0.90;0.80;;;13.80;99.90;;;;;;5164394;28;20026;-90
2023/10/31 06:24:21;;;;;;;;;;;13.70;99.90;;;;;;5149269;28;20030;-91
2023/10/31 06:26:57;;;;;;;1.13;0.98;;;13.60;1.00;;;;;;5166914;28;19902;-90
2023/10/31 06:29:29;;;;;;;0.68;0.68;;;13.60;99.90;;;;;;5163918;28;20033;-90
2023/10/31 06:32:02;;;;;;;0.80;0.80;;;13.60;99.90;;;;;;5164325;28;20064;-90
2023/10/31 06:34:36;;;;;;;1.10;1.10;;;13.70;99.90;;;;;;5164341;28;20042;-90
2023/10/31 06:37:08;;;;;;;0.77;0.77;;;13.70;99.90;;;;;;5175262;28;20022;-91
2023/10/31 06:39:39;;;;;;;0.77;0.77;;;13.70;99.90;;;;;;5171246;28;20053;-90
2023/10/31 06:42:10;;;;;;;0.88;0.88;;;13.70;99.90;;;;;;5152206;28;20032;-91
2023/10/31 06:44:44;;;;;;;0.60;0.60;;;13.70;99.90;;;;;;5175058;28;20042;-90
2023/10/31 06:47:16;;;;;;;0.70;0.70;;;13.70;99.90;;;;;;5167660;28;20101;-91
2023/10/31 06:49:55;;;;;;;0.80;0.80;;;13.70;99.90;;;;;;5166591;28;20022;-91
2023/10/31 06:52:31;;;;;;;0.60;0.60;;;13.70;99.90;;;;;;5173970;28;20018;-91
2023/10/31 06:55:06;;;;;;;0.68;0.68;;;13.60;99.90;;;;;;5158661;28;20048;-91
2023/10/31 06:57:37;;;;;;;0.50;0.50;;;13.60;89.40;;;;;;5173686;28;20034;-91
2023/10/31 07:00:12;;;;;;;0.60;0.60;;;13.60;88.80;;;;;;5175119;28;20022;-91
2023/10/31 07:02:49;;;;;;;0.80;0.80;;;13.60;98.70;;;;;;5191876;28;20058;-91
2023/10/31 07:05:20;;;;;;;0.80;0.80;;;13.60;99.90;;;;;;5174961;28;20018;-91
2023/10/31 07:07:52;;;;;;;0.88;0.88;;;13.60;99.90;;;;;;5175770;28;20042;-91
2023/10/31 07:10:23;;;;;;;0.63;0.63;;;13.60;95.60;;;;;;5175166;28;20038;-90
2023/10/31 07:12:55;;;;;;;0.60;0.60;;;13.50;11.40;;;;;;5152147;28;20046;-90
2023/10/31 07:15:29;;;;;;;0.60;0.60;;;13.50;1.00;;;;;;5164541;28;20050;-90
2023/10/31 07:18:04;;;;;;;0.60;0.60;;;13.60;17.00;;;;;;5165514;28;20324;-90
2023/10/31 07:20:38;;;;;;;0.60;0.60;;;13.60;89.40;;;;;;5166670;28;20036;-91
2023/10/31 07:23:17;;;;;;;0.73;0.73;;;13.50;47.20;;;;;;5164520;28;20026;-91
2023/10/31 07:25:54;;;;;;;0.60;0.60;;;13.50;56.40;;;;;;5163906;28;20022;-91
2023/10/31 07:28:31;;;;;;;0.60;0.60;;;13.50;49.50;;;;;;5165153;28;20032;-90
2023/10/31 07:31:03;;;;;;;0.60;0.60;;;13.50;74.10;;;;;;5165329;28;20056;-90
2023/10/31 07:33:35;;;;;;;2.28;0.80;;;13.50;48.50;;;;;;5148793;28;20038;-91
2023/10/31 07:36:07;;;;;;;0.73;0.73;;;13.50;79.20;;;;;;5149046;28;20038;-92
2023/10/31 07:38:38;;;;;;;0.60;0.60;;;13.50;86.00;;;;;;5164108;28;20034;-92
2023/10/31 07:41:12;;;;;;;0.60;0.60;;;13.50;96.00;;;;;;5164009;28;20048;-90
2023/10/31 07:43:47;;;;;;;0.70;0.70;;;13.40;46.70;;;;;;5163700;28;20030;-91
2023/10/31 07:46:23;;;;;;;0.70;0.70;;;13.40;72.60;;;;;;5163632;28;20338;-90
2023/10/31 07:48:56;;;;;;;0.50;0.50;;;13.40;52.20;;;;;;5164538;28;20041;-90
2023/10/31 07:51:29;;;;;;;0.63;0.57;;;13.40;16.50;;;;;;5164680;28;20034;-91
2023/10/31 07:54:04;;;;;;;0.70;0.70;;;13.50;1.00;;;;;;5165876;28;20200;-90
2023/10/31 07:56:39;;;;;;;0.52;0.52;;;13.50;1.00;;;;;;5181268;28;20312;-90
2023/10/31 07:59:11;;;;;;;0.50;0.50;;;13.60;99.90;;;;;;5165656;28;20034;-92
2023/10/31 08:01:42;;;;;;;0.70;0.70;;;13.50;99.90;;;;;;5187524;28;20049;-90
2023/10/31 08:04:15;;;;;;;0.80;0.80;;;13.60;99.90;;;;;;5175395;28;20282;-91
2023/10/31 08:06:51;;;;;;;0.63;0.63;;;13.60;99.90;;;;;;5175918;28;20023;-90
2023/10/31 08:09:23;;;;;;;0.70;0.70;;;13.60;99.90;;;;;;5175970;28;20034;-90
2023/10/31 08:11:57;;;;;;;0.55;0.55;;;13.60;99.90;;;;;;5190985;28;20041;-90
2023/10/31 08:14:31;;;;;;;0.70;0.70;;;13.70;99.90;;;;;;5166817;28;20038;-90
2023/10/31 08:17:06;;;;;;;0.65;0.65;;;13.70;74.50;;;;;;5167208;28;20026;-91
2023/10/31 08:19:40;;;;;;;0.60;0.60;;;13.70;45.40;;;;;;5169435;28;20034;-90
2023/10/31 08:22:11;;;;;;;0.60;0.60;;;13.70;1.00;;;;;;5167506;28;20037;-90
2023/10/31 08:28:11;;;;;;;0.90;0.90;;;13.70;1.00;;;;;;5184277;28;20033;-91
2023/10/31 08:30:47;;;;;;;0.73;0.73;;;13.80;1.00;;;;;;5168166;28;20030;-90
2023/10/31 08:33:18;;;;;;;0.60;0.60;;;13.80;1.00;;;;;;5166291;28;20030;-91
2023/10/31 08:35:53;;;;;;;0.70;0.70;;;13.70;1.00;;;;;;5167220;28;20044;-91
2023/10/31 08:38:28;;;;;;;;;;;13.70;1.00;;;;;;5167382;28;20038;-89
2023/10/31 08:41:02;;;;;;;;;;;13.70;1.00;;;;;;5183363;28;20094;-91
2023/10/31 08:43:33;;;;;;;0.80;0.80;;;13.70;1.00;;;;;;5167500;28;19902;-90
2023/10/31 08:46:05;;;;;;;0.95;0.70;;;13.70;1.00;;;;;;5167495;28;20038;-91
2023/10/31 08:48:37;;;;;;;0.60;0.60;;;13.60;1.00;;;;;;5168043;28;20030;-91
2023/10/31 08:51:10;;;;;;;0.60;0.60;;;13.60;1.00;;;;;;5167721;28;20041;-90
2023/10/31 08:53:42;;;;;;;0.75;0.75;;;13.60;1.00;;;;;;5171092;28;20040;-91
2023/10/31 08:56:13;;;;;;;0.50;0.50;;;13.60;1.00;;;;;;5169233;28;20022;-90
2023/10/31 08:58:47;;;;;;;0.95;0.90;;;13.60;1.00;;;;;;5167390;28;20137;-90
2023/10/31 09:01:19;;;;;;;0.80;0.80;;;13.60;1.00;;;;;;5170301;28;20034;-91
2023/10/31 09:03:55;;;;;;;0.60;0.60;;;13.60;1.00;;;;;;5171484;28;20030;-90
2023/10/31 09:06:31;;;;;;;1.02;0.90;;;13.60;1.00;;;;;;5168596;28;20224;-90
2023/10/31 09:09:10;;;;;;;0.60;0.60;;;13.60;1.00;;;;;;5154767;28;20097;-90
2023/10/31 09:11:44;;;;;;;2.08;0.80;;;13.60;1.00;;;;;;5175073;28;20026;-91
2023/10/31 09:14:16;;;;;;;0.70;0.70;;;13.60;1.00;;;;;;5176802;28;20040;-90
2023/10/31 09:16:50;;;;;;;0.47;0.47;;;13.50;1.00;;;;;;5168108;28;20036;-91
2023/10/31 09:19:21;;;;;;;0.75;0.75;;;13.40;1.00;;;;;;5166663;28;20030;-90
2023/10/31 09:21:53;;;;;;;2.20;0.70;;;13.40;1.00;;;;;;5168419;28;20040;-90
2023/10/31 09:24:24;;;;;;;0.80;0.80;;;13.50;1.00;;;;;;5166350;28;20030;-89
2023/10/31 09:27:01;;;;;;;0.65;0.65;;;13.40;1.00;;;;;;5166695;28;20355;-90
2023/10/31 09:29:32;;;;;;;0.60;0.60;;;13.40;1.00;;;;;;5165228;28;20026;-91
2023/10/31 09:32:06;;;;;;;0.63;0.63;;;13.40;1.00;;;;;;5165985;28;20030;-91
2023/10/31 09:38:05;;;;;;;0.88;0.80;;;13.00;99.90;;;;;;5182594;28;20044;-91
2023/10/31 09:40:39;;;;;;;0.82;0.70;;;12.50;1.00;;;;;;5171909;28;20040;-91
2023/10/31 09:43:13;;;;;;;3.13;0.98;;;12.30;1.00;;;;;;5189147;22;20022;-70
2023/10/31 09:45:48;;;;;;;0.80;0.80;;;12.10;1.00;;;;;;5169753;28;20241;-69
2023/10/31 09:48:25;;;;;;;0.60;0.60;;;12.00;1.00;;;;;;5189041;28;20372;-68
2023/10/31 09:50:57;;;;;;;1.20;0.93;;;11.90;1.00;;;;;;5223661;28;20209;-69
2023/10/31 09:53:33;;;;;;;1.02;0.98;;;11.80;1.00;;;;;;5242912;28;20020;-67
2023/10/31 09:56:06;;;;;;;1.27;1.02;;;11.70;1.00;;;;;;5224977;28;20048;-69
2023/10/31 09:58:39;;;;;;;0.80;0.80;;;11.70;1.00;;;;;;5210985;28;20025;-70
2023/10/31 10:01:11;;;;;;;0.98;0.95;;;11.60;1.00;;;;;;5183250;28;20033;-70
2023/10/31 10:03:45;;;;;;;1.05;0.75;;;11.60;1.00;;;;;;5200892;28;20321;-71
2023/10/31 10:06:23;;;;;;;1.15;0.93;;;11.40;1.00;;;;;;5214906;28;20059;-69
2023/10/31 10:08:56;;;;;;;0.82;0.82;;;11.30;1.00;;;;;;5205169;28;20280;-71
2023/10/31 10:11:27;;;;;;;1.52;0.90;;;11.20;39.80;;;;;;5206689;28;20038;-69
2023/10/31 10:14:02;;;;;;;0.80;0.80;;;11.10;99.20;;;;;;5243801;28;20009;-69
2023/10/31 10:16:38;;;;;;;0.80;0.80;;;11.00;99.90;;;;;;5241814;28;20028;-69
2023/10/31 10:19:20;;;;;;;0.95;0.90;;;11.00;99.90;;;;;;5216129;28;20047;-70
2023/10/31 10:21:54;;;;;;;0.85;0.85;;;10.90;99.90;;;;;;5230350;28;20458;-70
2023/10/31 10:24:25;;;;;;;2.28;1.00;;;10.80;99.90;;;;;;5225790;28;20343;-71
2023/10/31 10:26:56;;;;;;;0.93;0.93;;;10.80;99.90;;;;;;5211743;28;20240;-70
2023/10/31 10:29:27;;;;;;;1.10;1.00;;;10.70;99.90;;;;;;5223947;28;20039;-71
2023/10/31 10:32:06;;;;;;;1.45;1.05;;;10.70;99.90;;;;;;5222744;28;20043;-71
2023/10/31 10:34:43;;;;;;;0.85;0.85;;;10.70;99.90;;;;;;5224737;28;20041;-71
2023/10/31 10:37:19;;;;;;;1.13;1.13;;;10.60;99.90;;;;;;5187821;28;20055;-71
2023/10/31 10:39:55;;;;;;;2.33;1.35;;;10.60;99.90;;;;;;5222123;28;20170;-71
2023/10/31 10:42:45;;;;;;;0.70;0.70;;;10.60;99.90;;;;;;5223037;28;20031;-71
2023/10/31 10:45:17;;;;;;;0.65;0.65;;;10.50;99.90;;;;;;5219701;28;20139;-70
2023/10/31 10:47:56;;;;;;;0.80;0.80;;;10.50;99.90;;;;;;5188683;28;20025;-73
2023/10/31 10:50:30;;;;;;;0.80;0.80;;;10.50;99.90;;;;;;5204720;28;20039;-71
2023/10/31 10:53:25;;;;;;;0.93;0.85;;;10.50;99.90;;;;;;5237332;28;20029;-71
2023/10/31 10:56:04;;;;;;;0.80;0.80;;;10.40;99.90;;;;;;5208122;28;20028;-71
2023/10/31 10:58:53;;;;;;;0.60;0.60;;;10.40;99.90;;;;;;5210076;28;20035;-70
2023/10/31 11:01:25;;;;;;;0.60;0.60;;;10.40;99.90;;;;;;5182287;28;20025;-72
2023/10/31 11:04:00;;;;;;;0.63;0.63;;;10.40;99.90;;;;;;5221366;28;20033;-72
2023/10/31 11:06:33;;;;;;;0.80;0.80;;;10.30;99.90;;;;;;5220526;28;20305;-71
2023/10/31 11:09:06;;;;;;;1.83;0.70;;;10.30;99.90;;;;;;5221575;28;20063;-71
2023/10/31 11:11:49;;;;;;;2.22;1.00;;;10.30;99.90;;;;;;5203940;28;20286;-72
2023/10/31 11:14:23;;;;;;;0.63;0.63;;;10.30;99.90;;;;;;5187133;28;20033;-72
2023/10/31 11:17:02;;;;;;;2.65;0.80;;;10.30;99.90;;;;;;5219319;28;20226;-70
2023/10/31 11:19:36;;;;;;;2.65;0.60;;;10.30;99.90;;;;;;5220902;28;20197;-71
2023/10/31 11:22:07;;;;;;;1.25;1.13;;;10.30;99.90;;;;;;5204242;28;20028;-70
2023/10/31 11:24:48;;;;;;;1.20;1.15;;;10.30;99.90;;;;;;5220510;28;20325;-70
2023/10/31 11:27:19;;;;;;;1.10;0.70;;;10.30;99.90;;;;;;5221517;28;20328;-70
2023/10/31 11:29:50;;;;;;;0.50;0.50;;;10.30;99.90;;;;;;5203787;28;20025;-71
2023/10/31 11:32:22;;;;;;;0.90;0.90;;;10.30;99.90;;;;;;5218359;28;20016;-71
2023/10/31 11:34:56;;;;;;;1.15;0.75;;;10.30;99.90;;;;;;5221450;28;20021;-72
2023/10/31 11:37:36;;;;;;;;;;;10.30;99.90;;;;;;5203561;28;20037;-72
2023/10/31 11:40:17;;;;;;;1.00;0.90;;;10.30;99.90;;;;;;5203884;28;20566;-71
2023/10/31 11:42:59;;;;;;;2.05;0.80;;;10.20;99.90;;;;;;5224253;28;20035;-72
2023/10/31 11:45:35;;;;;;;2.78;0.75;;;10.20;99.90;;;;;;5219805;28;20031;-71
2023/10/31 11:48:07;;;;;;;5.20;0.85;;;10.20;99.90;;;;;;5186626;28;20035;-72
2023/10/31 11:50:44;;;;;;;0.88;0.68;;;10.20;99.90;;;;;;5203501;28;20043;-71
2023/10/31 11:53:22;;;;;;;0.60;0.60;;;10.20;99.90;;;;;;5225432;28;20033;-72
2023/10/31 11:55:56;;;;;;;0.50;0.50;;;10.20;99.90;;;;;;5226276;28;20029;-70
2023/10/31 11:58:30;;;;;;;0.60;0.60;;;10.20;99.90;;;;;;5224373;28;20032;-70
2023/10/31 12:01:05;;;;;;;3.35;1.00;;;10.20;99.90;;;;;;5206208;28;20036;-72
2023/10/31 12:03:47;;;;;;;0.80;0.80;;;10.20;99.90;;;;;;5217956;28;20314;-70
2023/10/31 12:06:21;;;;;;;0.60;0.60;;;10.20;99.90;;;;;;5207028;28;20070;-72
2023/10/31 12:08:52;;;;;;;2.75;1.00;;;10.10;99.90;;;;;;5190214;28;20033;-72
2023/10/31 12:11:31;;;;;;;1.23;0.90;;;10.10;99.90;;;;;;5224936;28;20043;-71
2023/10/31 12:14:05;;;;;;;1.88;0.70;;;10.10;99.90;;;;;;5224823;28;20029;-71
2023/10/31 12:16:36;;;;;;;0.60;0.60;;;10.10;99.90;;;;;;5204420;28;20025;-71
2023/10/31 12:19:09;;;;;;;1.65;1.00;;;10.10;99.90;;;;;;5224424;28;20028;-71
2023/10/31 12:21:42;;;;;;;0.77;0.77;;;10.10;99.90;;;;;;5224268;28;20390;-70
2023/10/31 12:24:15;;;;;;;0.70;0.70;;;10.10;99.90;;;;;;5205067;28;20392;-71
2023/10/31 12:26:52;;;;;;;0.50;0.50;;;10.10;99.90;;;;;;5224732;28;20139;-68
2023/10/31 12:29:23;;;;;;;1.38;1.00;;;10.10;99.90;;;;;;5202109;28;20272;-69
2023/10/31 12:31:57;;;;;;;1.08;0.82;;;10.10;99.90;;;;;;5208345;28;20036;-71
2023/10/31 12:34:29;;;;;;;1.10;1.10;;;10.00;99.90;;;;;;5209381;28;20298;-69
2023/10/31 12:37:01;;;;;;;0.80;0.80;;;10.10;99.90;;;;;;5225018;28;20310;-71
2023/10/31 12:39:32;;;;;;;0.60;0.60;;;10.10;99.90;;;;;;5224935;28;20335;-70
2023/10/31 12:42:04;;;;;;;0.73;0.65;;;10.00;99.90;;;;;;5211920;28;20312;-70
2023/10/31 12:44:38;;;;;;;0.85;0.80;;;10.10;99.90;;;;;;5245228;28;20032;-70
2023/10/31 12:47:11;;;;;;;0.50;0.50;;;10.10;99.90;;;;;;5207418;28;20343;-70
2023/10/31 12:49:42;;;;;;;0.80;0.80;;;10.10;99.90;;;;;;5245434;28;20342;-70
2023/10/31 12:52:14;;;;;;;0.88;0.80;;;10.20;99.90;;;;;;5227041;28;20028;-71
2023/10/31 12:54:45;;;;;;;0.57;0.57;;;10.30;99.90;;;;;;5227009;28;20029;-69
2023/10/31 12:57:16;;;;;;;0.70;0.70;;;10.20;99.90;;;;;;5238688;28;20033;-71
2023/10/31 12:59:48;;;;;;;1.05;0.70;;;10.20;99.90;;;;;;5205304;28;20037;-72
2023/10/31 13:02:21;;;;;;;0.80;0.80;;;10.20;99.90;;;;;;5193572;28;20047;-71
2023/10/31 13:04:53;;;;;;;2.30;0.80;;;10.30;99.90;;;;;;5223413;28;20233;-71
2023/10/31 13:07:32;;;;;;;1.27;0.55;;;10.30;99.90;;;;;;5208813;28;20043;-70
2023/10/31 13:10:09;;;;;;;0.60;0.60;;;10.30;99.90;;;;;;5224631;28;20050;-69
2023/10/31 13:12:44;;;;;;;0.60;0.60;;;10.30;99.90;;;;;;5202020;28;20037;-66
2023/10/31 13:15:18;;;;;;;0.70;0.70;;;10.30;99.90;;;;;;5186189;28;20317;-68
2023/10/31 13:17:52;;;;;;;1.10;0.70;;;10.20;99.90;;;;;;5203645;28;20030;-69
2023/10/31 13:20:23;;;;;;;1.00;0.93;;;10.20;99.90;;;;;;5169510;28;20021;-66
2023/10/31 13:22:57;;;;;;;0.50;0.50;;;10.20;99.90;;;;;;5194183;28;20033;-65
2023/10/31 13:25:31;;;;;;;0.50;0.50;;;10.20;99.90;;;;;;5177773;28;20376;-66
2023/10/31 13:28:06;;;;;;;0.63;0.63;;;10.10;99.90;;;;;;5179203;28;20313;-69
2023/10/31 13:30:39;;;;;;;0.57;0.57;;;10.10;99.90;;;;;;5202525;28;20271;-69
2023/10/31 13:33:10;;;;;;;0.60;0.60;;;10.20;99.90;;;;;;5189655;28;20048;-67
2023/10/31 13:35:47;;;;;;;0.63;0.50;;;10.20;99.90;;;;;;5205825;28;20050;-69
2023/10/31 13:38:18;;;;;;;0.50;0.50;;;10.30;99.90;;;;;;5189644;28;20042;-68
2023/10/31 13:40:49;;;;;;;0.73;0.73;;;10.40;99.90;;;;;;5227030;28;20032;-66
2023/10/31 13:43:20;;;;;;;0.70;0.70;;;10.40;99.90;;;;;;5244278;28;20405;-67
2023/10/31 13:45:52;;;;;;;0.80;0.80;;;10.50;99.90;;;;;;5196539;28;20033;-69
2023/10/31 13:48:23;;;;;;;0.68;0.68;;;10.40;99.90;;;;;;5224063;28;20028;-64
2023/10/31 13:50:57;;;;;;;2.15;0.77;;;10.40;93.30;;;;;;5193891;28;20267;-68
2023/10/31 13:53:31;;;;;;;0.65;0.65;;;10.40;99.90;;;;;;5220907;28;20267;-68
2023/10/31 13:56:03;;;;;;;1.67;0.70;;;10.40;99.90;;;;;;5188286;28;20210;-67
2023/10/31 13:58:36;;;;;;;0.82;0.82;;;10.50;99.60;;;;;;5189488;28;20117;-63
2023/10/31 14:01:10;;;;;;;1.27;0.80;;;10.50;97.10;;;;;;5222810;28;20031;-66
2023/10/31 14:03:50;;;;;;;0.60;0.60;;;10.60;56.90;;;;;;5188819;28;20196;-66